createdAt,value
2022-09-25T00:00:38.947Z,11.90
2022-09-25T00:04:40.500Z,11.90
2022-09-25T00:08:42.168Z,12.00
2022-09-25T00:12:43.761Z,11.90
2022-09-25T00:16:45.525Z,11.90
2022-09-25T00:20:47.681Z,11.90
2022-09-25T00:24:49.359Z,11.90
2022-09-25T00:28:51.984Z,11.90
2022-09-25T00:32:53.567Z,11.90
2022-09-25T00:36:55.104Z,11.90
2022-09-25T00:40:56.766Z,11.90
2022-09-25T00:45:00.949Z,12.00
2022-09-25T00:49:05.220Z,11.90
2022-09-25T00:53:15.521Z,11.90
2022-09-25T00:57:19.739Z,12.00
2022-09-25T01:01:22.445Z,11.90
2022-09-25T01:05:32.830Z,12.00
2022-09-25T01:09:35.546Z,11.90
2022-09-25T01:13:38.833Z,11.90
2022-09-25T01:17:56.377Z,11.90
2022-09-25T01:22:08.013Z,12.00
2022-09-25T01:26:28.452Z,11.90
2022-09-25T01:30:33.438Z,11.90
2022-09-25T01:34:50.168Z,12.00
2022-09-25T01:38:52.919Z,12.00
2022-09-25T01:42:57.432Z,12.00
2022-09-25T01:47:04.339Z,12.00
2022-09-25T01:51:13.823Z,12.00
2022-09-25T01:55:18.833Z,12.00
2022-09-25T01:59:32.903Z,12.00
2022-09-25T02:03:37.447Z,11.90
2022-09-25T02:07:42.183Z,12.00
2022-09-25T02:11:48.032Z,12.00
2022-09-25T02:15:52.117Z,12.00
2022-09-25T02:20:12.335Z,12.00
2022-09-25T02:24:16.627Z,12.00
2022-09-25T02:28:18.736Z,12.00
2022-09-25T02:32:22.748Z,11.90
2022-09-25T02:36:24.641Z,11.90
2022-09-25T02:40:34.367Z,11.80
2022-09-25T02:44:51.411Z,11.80
2022-09-25T02:48:54.809Z,11.70
2022-09-25T02:53:14.476Z,11.70
2022-09-25T02:57:24.612Z,11.70
2022-09-25T03:01:28.789Z,11.70
2022-09-25T03:05:30.729Z,11.60
2022-09-25T03:09:35.314Z,11.60
2022-09-25T03:13:37.423Z,11.60
2022-09-25T03:17:39.638Z,11.50
2022-09-25T03:21:41.335Z,11.60
2022-09-25T03:25:48.989Z,11.60
2022-09-25T03:29:51.593Z,11.50
2022-09-25T03:33:53.115Z,11.40
2022-09-25T03:37:54.707Z,11.40
2022-09-25T03:41:56.226Z,11.40
2022-09-25T03:45:57.836Z,11.30
2022-09-25T03:49:59.437Z,11.30
2022-09-25T03:54:01.059Z,11.40
2022-09-25T03:58:02.717Z,11.40
2022-09-25T04:02:04.328Z,11.40
2022-09-25T04:06:07.008Z,11.40
2022-09-25T04:10:08.714Z,11.30
2022-09-25T04:14:10.460Z,11.30
2022-09-25T04:18:12.054Z,11.30
2022-09-25T04:22:13.645Z,11.30
2022-09-25T04:26:15.145Z,11.30
2022-09-25T04:30:16.811Z,11.30
2022-09-25T04:34:18.431Z,11.20
2022-09-25T04:38:20.024Z,11.30
2022-09-25T04:42:25.110Z,11.20
2022-09-25T04:46:27.041Z,11.30
2022-09-25T04:50:29.168Z,11.30
2022-09-25T04:54:31.356Z,11.30
2022-09-25T04:58:33.215Z,11.20
2022-09-25T05:02:34.953Z,11.20
2022-09-25T05:06:36.640Z,11.20
2022-09-25T05:10:41.995Z,11.10
2022-09-25T05:14:44.040Z,11.00
2022-09-25T05:18:45.749Z,11.00
2022-09-25T05:22:47.811Z,11.00
2022-09-25T05:26:49.386Z,11.00
2022-09-25T05:30:51.023Z,10.90
2022-09-25T05:34:52.689Z,10.90
2022-09-25T05:38:54.302Z,11.00
2022-09-25T05:42:55.866Z,11.00
2022-09-25T05:46:57.461Z,10.90
2022-09-25T05:50:59.083Z,10.90
2022-09-25T05:55:00.924Z,10.90
2022-09-25T05:59:02.470Z,10.90
2022-09-25T06:03:04.034Z,10.90
2022-09-25T06:07:05.740Z,11.00
2022-09-25T06:11:08.116Z,10.90
2022-09-25T06:15:09.942Z,10.90
2022-09-25T06:19:11.492Z,10.90
2022-09-25T06:23:13.196Z,10.90
2022-09-25T06:27:15.061Z,10.80
2022-09-25T06:31:16.729Z,10.90
2022-09-25T06:35:18.425Z,10.80
2022-09-25T06:39:20.202Z,10.90
2022-09-25T06:43:21.801Z,10.80
2022-09-25T06:47:26.784Z,10.80
2022-09-25T06:51:32.379Z,10.80
2022-09-25T06:55:35.002Z,10.80
2022-09-25T06:59:36.627Z,10.90
2022-09-25T07:03:48.272Z,10.80
2022-09-25T07:07:49.803Z,10.80
2022-09-25T07:11:53.118Z,10.80
2022-09-25T07:15:55.759Z,10.90
2022-09-25T07:19:57.401Z,10.80
2022-09-25T07:23:59.108Z,10.80
2022-09-25T07:28:01.088Z,10.80
2022-09-25T07:32:02.666Z,10.80
2022-09-25T07:36:04.292Z,10.70
2022-09-25T07:40:06.197Z,10.70
2022-09-25T07:44:38.696Z,10.70
2022-09-25T07:48:31.581Z,10.80
2022-09-25T07:52:33.288Z,10.70
2022-09-25T07:56:34.859Z,10.70
2022-09-25T08:00:39.067Z,10.70
2022-09-25T08:04:41.182Z,10.60
2022-09-25T08:08:43.122Z,10.70
2022-09-25T08:12:44.810Z,10.60
2022-09-25T08:16:47.451Z,10.70
2022-09-25T08:20:48.976Z,10.60
2022-09-25T08:24:50.677Z,10.80
2022-09-25T08:28:52.239Z,10.90
2022-09-25T08:32:53.794Z,10.90
2022-09-25T08:36:55.323Z,11.00
2022-09-25T08:41:15.768Z,11.00
2022-09-25T08:45:42.722Z,11.10
2022-09-25T08:50:07.985Z,11.20
2022-09-25T08:54:20.943Z,11.30
2022-09-25T08:58:26.766Z,11.20
2022-09-25T09:02:48.568Z,11.40
2022-09-25T09:07:08.115Z,11.40
2022-09-25T09:11:16.969Z,11.40
2022-09-25T09:15:33.128Z,11.60
2022-09-25T09:19:34.683Z,11.70
2022-09-25T09:23:58.079Z,11.60
2022-09-25T09:28:15.033Z,11.60
2022-09-25T09:32:19.562Z,11.90
2022-09-25T09:36:30.069Z,12.00
2022-09-25T09:40:41.326Z,12.00
2022-09-25T09:44:43.566Z,12.20
2022-09-25T09:48:45.145Z,12.60
2022-09-25T09:52:49.476Z,12.40
2022-09-25T09:56:52.987Z,12.70
2022-09-25T10:00:54.830Z,12.90
2022-09-25T10:04:57.349Z,12.90
2022-09-25T10:08:58.885Z,13.00
2022-09-25T10:13:06.698Z,13.20
2022-09-25T10:17:11.351Z,13.40
2022-09-25T10:21:18.239Z,13.50
2022-09-25T10:25:37.096Z,13.40
2022-09-25T10:29:38.623Z,12.90
2022-09-25T10:33:40.196Z,12.90
2022-09-25T10:37:41.962Z,13.40
2022-09-25T10:41:44.304Z,13.30
2022-09-25T10:45:46.404Z,13.40
2022-09-25T10:50:06.813Z,13.30
2022-09-25T10:54:12.655Z,13.40
2022-09-25T10:58:22.583Z,13.10
2022-09-25T11:02:46.512Z,13.10
2022-09-25T11:06:52.263Z,13.20
2022-09-25T11:10:57.257Z,13.60
2022-09-25T11:15:06.736Z,13.80
2022-09-25T11:19:12.217Z,13.70
2022-09-25T11:23:28.172Z,13.60
2022-09-25T11:27:32.719Z,14.00
2022-09-25T11:31:42.302Z,14.20
2022-09-25T11:35:57.035Z,14.20
2022-09-25T11:40:21.322Z,14.30
2022-09-25T11:44:31.650Z,14.10
2022-09-25T11:48:34.338Z,14.00
2022-09-25T11:52:48.010Z,14.10
2022-09-25T11:57:10.161Z,14.30
2022-09-25T12:01:30.603Z,14.60
2022-09-25T12:05:32.370Z,14.40
2022-09-25T12:09:42.612Z,14.50
2022-09-25T12:14:03.303Z,14.40
2022-09-25T12:18:04.840Z,14.40
2022-09-25T12:22:25.289Z,14.40
2022-09-25T12:26:40.421Z,14.60
2022-09-25T12:31:05.265Z,14.40
2022-09-25T12:35:07.709Z,14.50
2022-09-25T12:39:30.119Z,14.50
2022-09-25T12:43:41.152Z,14.50
2022-09-25T12:47:52.311Z,14.60
2022-09-25T12:51:55.655Z,14.70
2022-09-25T12:56:10.512Z,14.60
2022-09-25T13:00:21.260Z,14.70
2022-09-25T13:04:41.926Z,14.50
2022-09-25T13:08:48.771Z,14.40
2022-09-25T13:12:51.291Z,14.90
2022-09-25T13:16:52.853Z,14.80
2022-09-25T13:20:55.560Z,14.90
2022-09-25T13:25:01.670Z,15.20
2022-09-25T13:29:07.416Z,15.40
2022-09-25T13:33:19.262Z,15.10
2022-09-25T13:37:25.205Z,14.70
2022-09-25T13:41:29.906Z,14.50
2022-09-25T13:45:33.396Z,14.30
2022-09-25T13:49:35.789Z,14.10
2022-09-25T13:54:06.805Z,14.10
2022-09-25T13:58:18.401Z,14.60
2022-09-25T14:02:33.771Z,14.80
2022-09-25T14:06:39.091Z,15.00
2022-09-25T14:10:45.313Z,14.90
2022-09-25T14:14:55.166Z,15.00
2022-09-25T14:18:57.916Z,15.20
2022-09-25T14:23:02.563Z,15.20
2022-09-25T14:27:16.024Z,15.00
2022-09-25T14:31:21.265Z,14.70
2022-09-25T14:35:30.489Z,14.60
2022-09-25T14:39:57.286Z,14.60
2022-09-25T14:44:02.174Z,14.60
2022-09-25T14:48:10.262Z,14.60
2022-09-25T14:52:15.314Z,14.50
2022-09-25T14:56:17.243Z,14.40
2022-09-25T15:00:23.750Z,14.40
2022-09-25T15:04:26.442Z,14.50
2022-09-25T15:08:30.746Z,14.40
2022-09-25T15:12:35.729Z,14.30
2022-09-25T15:16:56.503Z,14.40
2022-09-25T15:20:58.620Z,14.50
2022-09-25T15:25:01.721Z,14.70
2022-09-25T15:29:03.246Z,14.90
2022-09-25T15:33:04.777Z,14.90
2022-09-25T15:37:18.129Z,15.00
2022-09-25T15:41:20.958Z,15.10
2022-09-25T15:45:25.747Z,15.10
2022-09-25T15:49:32.753Z,15.00
2022-09-25T15:53:43.911Z,15.40
2022-09-25T15:57:45.936Z,15.60
2022-09-25T16:02:06.520Z,15.30
2022-09-25T16:06:17.460Z,15.10
2022-09-25T16:10:18.977Z,15.20
2022-09-25T16:14:30.220Z,15.00
2022-09-25T16:18:41.058Z,14.90
2022-09-25T16:22:46.990Z,14.70
2022-09-25T16:26:53.922Z,14.80
2022-09-25T16:31:07.212Z,14.70
2022-09-25T16:35:19.122Z,14.50
2022-09-25T16:39:26.864Z,14.30
2022-09-25T16:43:28.823Z,14.20
2022-09-25T16:47:30.856Z,14.10
2022-09-25T16:51:33.328Z,14.10
2022-09-25T16:55:47.343Z,14.00
2022-09-25T16:59:49.304Z,14.00
2022-09-25T17:03:50.940Z,14.00
2022-09-25T17:07:54.740Z,13.80
2022-09-25T17:12:01.086Z,13.70
2022-09-25T17:16:02.902Z,13.60
2022-09-25T17:20:04.845Z,13.50
2022-09-25T17:24:09.327Z,13.40
2022-09-25T17:28:11.851Z,13.40
2022-09-25T17:32:15.221Z,13.20
2022-09-25T17:36:17.044Z,13.10
2022-09-25T17:40:19.311Z,13.10
2022-09-25T17:44:23.274Z,13.00
2022-09-25T17:48:31.578Z,13.00
2022-09-25T17:52:33.101Z,13.00
2022-09-25T17:56:34.830Z,12.80
2022-09-25T18:00:36.436Z,12.80
2022-09-25T18:04:38.143Z,12.70
2022-09-25T18:08:39.784Z,12.60
2022-09-25T18:12:41.591Z,12.50
2022-09-25T18:16:44.086Z,12.40
2022-09-25T18:21:08.943Z,12.20
2022-09-25T18:25:11.125Z,12.20
2022-09-25T18:29:14.399Z,12.10
2022-09-25T18:33:15.998Z,12.10
2022-09-25T18:37:17.569Z,12.00
2022-09-25T18:41:19.126Z,12.00
2022-09-25T18:45:21.806Z,11.80
2022-09-25T18:49:24.831Z,11.70
2022-09-25T18:53:26.362Z,11.40
2022-09-25T18:57:28.039Z,11.40
2022-09-25T19:01:29.692Z,11.40
2022-09-25T19:05:31.466Z,11.60
2022-09-25T19:09:33.064Z,11.60
2022-09-25T19:13:34.725Z,11.60
2022-09-25T19:17:36.312Z,11.50
2022-09-25T19:21:38.826Z,11.40
2022-09-25T19:25:40.429Z,11.40
2022-09-25T19:29:42.566Z,11.40
2022-09-25T19:33:44.500Z,11.40
2022-09-25T19:37:46.074Z,11.40
2022-09-25T19:41:48.447Z,11.30
2022-09-25T19:45:53.896Z,11.30
2022-09-25T19:49:55.607Z,11.30
2022-09-25T19:53:57.162Z,11.30
2022-09-25T19:57:58.751Z,11.30
2022-09-25T20:02:00.661Z,11.40
2022-09-25T20:06:03.029Z,11.50
2022-09-25T20:10:04.854Z,11.50
2022-09-25T20:14:07.493Z,11.40
2022-09-25T20:18:09.110Z,11.30
2022-09-25T20:22:10.755Z,11.30
2022-09-25T20:26:13.559Z,11.20
2022-09-25T20:30:15.229Z,11.20
2022-09-25T20:34:17.923Z,11.20
2022-09-25T20:38:19.421Z,11.10
2022-09-25T20:42:21.266Z,11.10
2022-09-25T20:46:23.983Z,11.00
2022-09-25T20:50:25.672Z,11.10
2022-09-25T20:54:27.302Z,11.00
2022-09-25T20:58:28.982Z,10.90
2022-09-25T21:02:30.576Z,10.80
2022-09-25T21:06:32.977Z,10.80
2022-09-25T21:10:40.285Z,10.70
2022-09-25T21:14:41.981Z,10.70
2022-09-25T21:18:43.573Z,10.60
2022-09-25T21:22:45.168Z,10.60
2022-09-25T21:26:46.800Z,10.50
2022-09-25T21:30:48.542Z,10.50
2022-09-25T21:34:50.103Z,10.50
2022-09-25T21:38:51.690Z,10.50
2022-09-25T21:42:53.207Z,10.40
2022-09-25T21:46:54.826Z,10.40
2022-09-25T21:50:58.051Z,10.40
2022-09-25T21:54:59.624Z,10.30
2022-09-25T21:59:14.516Z,10.40
2022-09-25T22:03:16.199Z,10.40
2022-09-25T22:07:17.770Z,10.30
2022-09-25T22:11:19.974Z,10.40
2022-09-25T22:15:21.514Z,10.30
2022-09-25T22:19:24.630Z,10.20
2022-09-25T22:23:26.221Z,10.20
2022-09-25T22:27:28.065Z,10.10
2022-09-25T22:31:30.675Z,10.10
2022-09-25T22:35:32.207Z,10.10
2022-09-25T22:39:33.746Z,10.20
2022-09-25T22:43:35.734Z,10.10
2022-09-25T22:47:37.320Z,10.20
2022-09-25T22:51:38.817Z,10.20
2022-09-25T22:55:40.345Z,10.30
2022-09-25T22:59:41.868Z,10.20
2022-09-25T23:03:43.489Z,10.20
2022-09-25T23:07:45.088Z,10.30
2022-09-25T23:11:46.817Z,10.30
2022-09-25T23:15:48.416Z,10.20
2022-09-25T23:19:49.958Z,10.30
2022-09-25T23:23:55.604Z,10.30
2022-09-25T23:27:57.188Z,10.30
2022-09-25T23:31:58.762Z,10.30
2022-09-25T23:36:04.421Z,10.10
2022-09-25T23:40:06.277Z,10.00
2022-09-25T23:44:09.455Z,10.10
2022-09-25T23:48:10.993Z,10.30
2022-09-25T23:52:12.510Z,10.40
2022-09-25T23:56:15.137Z,10.40
